sensor_id;sensor_type;location;lat;lon;timestamp;P1;durP1;ratioP1;P2;durP2;ratioP2
15383;SDS011;7790;53.022;12.968;2024-01-10T01:58:27;5.23;;;2.20;;
15383;SDS011;7790;53.022;12.968;2024-01-10T02:02:28;2.50;;;2.30;;
15383;SDS011;7790;53.022;12.968;2024-01-10T02:06:31;2.37;;;2.17;;
15383;SDS011;7790;53.022;12.968;2024-01-10T02:10:31;4.63;;;2.20;;
15383;SDS011;7790;53.022;12.968;2024-01-10T02:14:32;15.17;;;2.00;;
15383;SDS011;7790;53.022;12.968;2024-01-10T02:18:34;2.20;;;1.90;;
15383;SDS011;7790;53.022;12.968;2024-01-10T02:22:35;2.23;;;2.10;;
15383;SDS011;7790;53.022;12.968;2024-01-10T02:26:36;4.30;;;2.23;;
15383;SDS011;7790;53.022;12.968;2024-01-10T02:30:37;2.17;;;2.00;;
15383;SDS011;7790;53.022;12.968;2024-01-10T02:34:38;2.10;;;1.87;;
15383;SDS011;7790;53.022;12.968;2024-01-10T02:38:39;2.57;;;2.10;;
15383;SDS011;7790;53.022;12.968;2024-01-10T02:42:40;2.50;;;2.30;;
15383;SDS011;7790;53.022;12.968;2024-01-10T02:46:41;2.47;;;2.00;;
15383;SDS011;7790;53.022;12.968;2024-01-10T02:50:42;2.57;;;2.10;;
15383;SDS011;7790;53.022;12.968;2024-01-10T02:54:43;1.80;;;1.70;;
15383;SDS011;7790;53.022;12.968;2024-01-10T02:58:44;2.50;;;2.30;;
15383;SDS011;7790;53.022;12.968;2024-01-10T03:02:47;2.33;;;2.13;;
15383;SDS011;7790;53.022;12.968;2024-01-10T03:06:47;1.80;;;1.70;;
15383;SDS011;7790;53.022;12.968;2024-01-10T03:10:48;2.27;;;2.07;;
15383;SDS011;7790;53.022;12.968;2024-01-10T03:14:50;3.00;;;2.37;;
15383;SDS011;7790;53.022;12.968;2024-01-10T03:18:51;2.20;;;2.00;;
15383;SDS011;7790;53.022;12.968;2024-01-10T03:22:52;2.20;;;2.00;;
15383;SDS011;7790;53.022;12.968;2024-01-10T03:26:53;2.20;;;2.00;;
15383;SDS011;7790;53.022;12.968;2024-01-10T03:30:55;1.90;;;1.80;;
15383;SDS011;7790;53.022;12.968;2024-01-10T03:34:56;2.10;;;1.93;;
15383;SDS011;7790;53.022;12.968;2024-01-10T03:38:57;1.73;;;1.63;;
15383;SDS011;7790;53.022;12.968;2024-01-10T03:42:58;2.00;;;1.90;;
15383;SDS011;7790;53.022;12.968;2024-01-10T03:46:58;2.30;;;2.10;;
15383;SDS011;7790;53.022;12.968;2024-01-10T03:50:59;1.90;;;1.80;;
15383;SDS011;7790;53.022;12.968;2024-01-10T03:55:00;2.00;;;1.90;;
15383;SDS011;7790;53.022;12.968;2024-01-10T03:59:01;2.30;;;2.10;;
15383;SDS011;7790;53.022;12.968;2024-01-10T04:03:02;2.47;;;1.70;;
15383;SDS011;7790;53.022;12.968;2024-01-10T04:07:03;2.17;;;1.97;;
15383;SDS011;7790;53.022;12.968;2024-01-10T04:11:04;2.97;;;1.97;;
15383;SDS011;7790;53.022;12.968;2024-01-10T04:15:05;1.90;;;1.80;;
15383;SDS011;7790;53.022;12.968;2024-01-10T04:19:07;2.00;;;1.90;;
15383;SDS011;7790;53.022;12.968;2024-01-10T04:23:07;1.83;;;1.73;;
15383;SDS011;7790;53.022;12.968;2024-01-10T04:27:08;2.20;;;2.00;;
15383;SDS011;7790;53.022;12.968;2024-01-10T04:31:09;2.20;;;2.00;;
15383;SDS011;7790;53.022;12.968;2024-01-10T04:35:10;2.40;;;2.20;;
15383;SDS011;7790;53.022;12.968;2024-01-10T04:39:11;2.27;;;2.10;;
15383;SDS011;7790;53.022;12.968;2024-01-10T04:43:12;4.57;;;2.70;;
15383;SDS011;7790;53.022;12.968;2024-01-10T04:47:12;7.57;;;3.00;;
15383;SDS011;7790;53.022;12.968;2024-01-10T04:51:13;6.77;;;3.23;;
15383;SDS011;7790;53.022;12.968;2024-01-10T04:55:15;4.93;;;3.07;;
15383;SDS011;7790;53.022;12.968;2024-01-10T04:59:15;2.90;;;2.60;;
15383;SDS011;7790;53.022;12.968;2024-01-10T05:03:18;4.37;;;2.50;;
15383;SDS011;7790;53.022;12.968;2024-01-10T05:07:19;2.77;;;2.57;;
15383;SDS011;7790;53.022;12.968;2024-01-10T05:11:20;3.70;;;3.07;;
15383;SDS011;7790;53.022;12.968;2024-01-10T05:15:21;3.63;;;2.80;;
15383;SDS011;7790;53.022;12.968;2024-01-10T05:19:22;3.20;;;2.53;;
15383;SDS011;7790;53.022;12.968;2024-01-10T05:23:23;2.90;;;2.60;;
15383;SDS011;7790;53.022;12.968;2024-01-10T05:27:24;4.33;;;2.60;;
15383;SDS011;7790;53.022;12.968;2024-01-10T05:31:26;2.40;;;2.20;;
15383;SDS011;7790;53.022;12.968;2024-01-10T05:35:27;3.93;;;2.27;;
15383;SDS011;7790;53.022;12.968;2024-01-10T05:39:28;2.40;;;2.20;;
15383;SDS011;7790;53.022;12.968;2024-01-10T05:43:29;2.37;;;2.20;;
15383;SDS011;7790;53.022;12.968;2024-01-10T05:47:34;3.07;;;2.50;;
15383;SDS011;7790;53.022;12.968;2024-01-10T05:51:35;2.93;;;2.40;;
15383;SDS011;7790;53.022;12.968;2024-01-10T05:55:37;2.50;;;2.30;;
15383;SDS011;7790;53.022;12.968;2024-01-10T05:59:38;3.53;;;2.67;;
15383;SDS011;7790;53.022;12.968;2024-01-10T06:03:39;2.53;;;2.33;;
15383;SDS011;7790;53.022;12.968;2024-01-10T06:07:40;3.50;;;2.50;;
15383;SDS011;7790;53.022;12.968;2024-01-10T06:11:42;3.10;;;2.40;;
15383;SDS011;7790;53.022;12.968;2024-01-10T06:15:43;2.70;;;2.50;;
15383;SDS011;7790;53.022;12.968;2024-01-10T06:19:44;2.27;;;2.13;;
15383;SDS011;7790;53.022;12.968;2024-01-10T06:23:45;2.87;;;2.67;;
15383;SDS011;7790;53.022;12.968;2024-01-10T06:27:47;2.70;;;2.50;;
15383;SDS011;7790;53.022;12.968;2024-01-10T06:31:47;2.60;;;2.40;;
15383;SDS011;7790;53.022;12.968;2024-01-10T06:35:49;2.80;;;2.57;;
15383;SDS011;7790;53.022;12.968;2024-01-10T06:39:50;2.60;;;2.40;;
15383;SDS011;7790;53.022;12.968;2024-01-10T06:43:51;2.60;;;2.40;;
15383;SDS011;7790;53.022;12.968;2024-01-10T06:47:56;3.00;;;2.80;;
15383;SDS011;7790;53.022;12.968;2024-01-10T06:51:57;2.70;;;2.50;;
15383;SDS011;7790;53.022;12.968;2024-01-10T06:55:58;2.83;;;2.50;;
15383;SDS011;7790;53.022;12.968;2024-01-10T06:59:59;2.80;;;2.60;;
15383;SDS011;7790;53.022;12.968;2024-01-10T07:04:01;2.70;;;2.50;;
15383;SDS011;7790;53.022;12.968;2024-01-10T07:08:05;3.13;;;2.40;;
15383;SDS011;7790;53.022;12.968;2024-01-10T07:12:06;2.90;;;2.60;;
15383;SDS011;7790;53.022;12.968;2024-01-10T07:16:08;2.80;;;2.57;;
15383;SDS011;7790;53.022;12.968;2024-01-10T07:20:09;2.30;;;2.10;;
15383;SDS011;7790;53.022;12.968;2024-01-10T07:24:12;2.50;;;2.30;;
15383;SDS011;7790;53.022;12.968;2024-01-10T07:28:13;3.33;;;2.50;;
15383;SDS011;7790;53.022;12.968;2024-01-10T07:32:13;2.60;;;2.40;;
15383;SDS011;7790;53.022;12.968;2024-01-10T07:36:14;2.50;;;2.30;;
15383;SDS011;7790;53.022;12.968;2024-01-10T07:40:15;2.63;;;2.43;;
15383;SDS011;7790;53.022;12.968;2024-01-10T07:44:16;2.50;;;2.30;;
15383;SDS011;7790;53.022;12.968;2024-01-10T07:48:17;2.30;;;2.10;;
15383;SDS011;7790;53.022;12.968;2024-01-10T07:52:18;2.40;;;2.20;;
15383;SDS011;7790;53.022;12.968;2024-01-10T07:56:19;2.50;;;2.30;;
15383;SDS011;7790;53.022;12.968;2024-01-10T08:00:20;2.37;;;2.20;;
15383;SDS011;7790;53.022;12.968;2024-01-10T08:04:21;2.33;;;2.20;;
15383;SDS011;7790;53.022;12.968;2024-01-10T08:08:21;2.10;;;2.00;;
15383;SDS011;7790;53.022;12.968;2024-01-10T08:12:22;2.00;;;1.90;;
15383;SDS011;7790;53.022;12.968;2024-01-10T08:16:24;2.50;;;2.30;;
15383;SDS011;7790;53.022;12.968;2024-01-10T08:20:25;2.47;;;2.27;;
15383;SDS011;7790;53.022;12.968;2024-01-10T08:24:26;2.40;;;2.20;;
15383;SDS011;7790;53.022;12.968;2024-01-10T08:28:26;2.53;;;2.33;;
15383;SDS011;7790;53.022;12.968;2024-01-10T08:32:27;2.40;;;2.20;;
15383;SDS011;7790;53.022;12.968;2024-01-10T08:36:28;2.43;;;2.23;;
15383;SDS011;7790;53.022;12.968;2024-01-10T08:40:29;2.63;;;2.43;;
15383;SDS011;7790;53.022;12.968;2024-01-10T08:44:31;2.40;;;2.20;;
15383;SDS011;7790;53.022;12.968;2024-01-10T08:48:32;3.10;;;2.40;;
15383;SDS011;7790;53.022;12.968;2024-01-10T08:52:33;2.10;;;2.00;;
15383;SDS011;7790;53.022;12.968;2024-01-10T08:56:34;2.80;;;2.60;;
15383;SDS011;7790;53.022;12.968;2024-01-10T09:00:36;2.50;;;2.30;;
15383;SDS011;7790;53.022;12.968;2024-01-10T09:04:38;2.90;;;2.70;;
15383;SDS011;7790;53.022;12.968;2024-01-10T09:08:39;2.60;;;2.40;;
15383;SDS011;7790;53.022;12.968;2024-01-10T09:12:40;2.70;;;2.50;;
15383;SDS011;7790;53.022;12.968;2024-01-10T09:16:44;2.97;;;2.70;;
15383;SDS011;7790;53.022;12.968;2024-01-10T09:20:45;2.83;;;2.53;;
15383;SDS011;7790;53.022;12.968;2024-01-10T09:24:48;3.10;;;2.80;;
15383;SDS011;7790;53.022;12.968;2024-01-10T09:28:49;2.97;;;2.70;;
15383;SDS011;7790;53.022;12.968;2024-01-10T09:32:50;3.37;;;2.67;;
15383;SDS011;7790;53.022;12.968;2024-01-10T09:36:51;2.63;;;2.43;;
15383;SDS011;7790;53.022;12.968;2024-01-10T09:40:53;3.20;;;2.90;;
15383;SDS011;7790;53.022;12.968;2024-01-10T09:45:06;2.67;;;2.47;;
15383;SDS011;7790;53.022;12.968;2024-01-10T09:49:10;3.10;;;2.90;;
15383;SDS011;7790;53.022;12.968;2024-01-10T09:53:20;3.47;;;3.10;;
15383;SDS011;7790;53.022;12.968;2024-01-10T09:57:24;3.07;;;2.80;;
15383;SDS011;7790;53.022;12.968;2024-01-10T10:01:25;3.30;;;3.00;;
15383;SDS011;7790;53.022;12.968;2024-01-10T10:05:27;2.90;;;2.70;;
15383;SDS011;7790;53.022;12.968;2024-01-10T10:09:28;2.90;;;2.70;;
15383;SDS011;7790;53.022;12.968;2024-01-10T10:13:32;3.33;;;2.90;;
15383;SDS011;7790;53.022;12.968;2024-01-10T10:17:35;2.90;;;2.60;;
15383;SDS011;7790;53.022;12.968;2024-01-10T10:21:36;3.03;;;2.80;;
15383;SDS011;7790;53.022;12.968;2024-01-10T10:25:44;2.93;;;2.70;;
15383;SDS011;7790;53.022;12.968;2024-01-10T10:29:47;3.07;;;2.80;;
15383;SDS011;7790;53.022;12.968;2024-01-10T10:33:49;2.87;;;2.67;;
15383;SDS011;7790;53.022;12.968;2024-01-10T10:37:53;3.20;;;2.90;;
15383;SDS011;7790;53.022;12.968;2024-01-10T10:41:54;3.40;;;3.10;;
15383;SDS011;7790;53.022;12.968;2024-01-10T10:45:57;3.00;;;2.80;;
15383;SDS011;7790;53.022;12.968;2024-01-10T10:49:59;2.80;;;2.60;;
15383;SDS011;7790;53.022;12.968;2024-01-10T10:54:03;3.93;;;2.50;;
15383;SDS011;7790;53.022;12.968;2024-01-10T10:58:05;2.87;;;2.67;;
15383;SDS011;7790;53.022;12.968;2024-01-10T11:02:07;4.73;;;2.90;;
15383;SDS011;7790;53.022;12.968;2024-01-10T11:06:11;4.20;;;3.20;;
15383;SDS011;7790;53.022;12.968;2024-01-10T11:10:17;4.47;;;3.23;;
15383;SDS011;7790;53.022;12.968;2024-01-10T11:27:13;3.17;;;2.97;;
15383;SDS011;7790;53.022;12.968;2024-01-10T11:31:15;3.30;;;3.00;;
15383;SDS011;7790;53.022;12.968;2024-01-10T11:35:28;3.70;;;3.40;;
15383;SDS011;7790;53.022;12.968;2024-01-10T11:39:32;4.53;;;3.50;;
15383;SDS011;7790;53.022;12.968;2024-01-10T11:43:35;3.60;;;3.30;;
15383;SDS011;7790;53.022;12.968;2024-01-10T11:47:39;3.50;;;3.20;;
15383;SDS011;7790;53.022;12.968;2024-01-10T11:51:44;3.80;;;3.47;;
15383;SDS011;7790;53.022;12.968;2024-01-10T11:55:47;3.80;;;3.50;;
15383;SDS011;7790;53.022;12.968;2024-01-10T11:59:52;4.23;;;3.37;;
15383;SDS011;7790;53.022;12.968;2024-01-10T12:03:53;5.23;;;3.50;;
15383;SDS011;7790;53.022;12.968;2024-01-10T12:07:56;3.50;;;3.20;;
15383;SDS011;7790;53.022;12.968;2024-01-10T12:11:59;3.97;;;3.50;;
15383;SDS011;7790;53.022;12.968;2024-01-10T12:16:00;6.30;;;3.63;;
15383;SDS011;7790;53.022;12.968;2024-01-10T12:20:01;4.13;;;3.73;;
15383;SDS011;7790;53.022;12.968;2024-01-10T12:24:05;4.17;;;3.77;;
15383;SDS011;7790;53.022;12.968;2024-01-10T12:28:07;3.40;;;3.10;;
15383;SDS011;7790;53.022;12.968;2024-01-10T12:32:08;3.70;;;3.23;;
15383;SDS011;7790;53.022;12.968;2024-01-10T12:36:10;5.30;;;3.70;;
15383;SDS011;7790;53.022;12.968;2024-01-10T12:40:11;3.90;;;3.40;;
15383;SDS011;7790;53.022;12.968;2024-01-10T12:44:14;4.30;;;3.60;;
15383;SDS011;7790;53.022;12.968;2024-01-10T12:48:14;5.60;;;3.77;;
15383;SDS011;7790;53.022;12.968;2024-01-10T12:52:17;4.20;;;3.80;;
15383;SDS011;7790;53.022;12.968;2024-01-10T12:56:19;4.83;;;4.10;;
15383;SDS011;7790;53.022;12.968;2024-01-10T13:00:20;4.70;;;4.30;;
15383;SDS011;7790;53.022;12.968;2024-01-10T13:04:21;5.70;;;4.50;;
15383;SDS011;7790;53.022;12.968;2024-01-10T13:08:22;5.17;;;4.40;;
15383;SDS011;7790;53.022;12.968;2024-01-10T13:12:24;4.77;;;4.27;;
15383;SDS011;7790;53.022;12.968;2024-01-10T13:16:24;4.67;;;4.27;;
15383;SDS011;7790;53.022;12.968;2024-01-10T13:20:26;8.10;;;4.57;;
15383;SDS011;7790;53.022;12.968;2024-01-10T13:24:28;6.03;;;4.10;;
15383;SDS011;7790;53.022;12.968;2024-01-10T13:28:30;4.50;;;4.10;;
15383;SDS011;7790;53.022;12.968;2024-01-10T13:32:31;5.13;;;4.50;;
15383;SDS011;7790;53.022;12.968;2024-01-10T13:36:31;4.73;;;4.10;;
15383;SDS011;7790;53.022;12.968;2024-01-10T13:40:32;4.50;;;4.10;;
15383;SDS011;7790;53.022;12.968;2024-01-10T13:44:34;5.90;;;4.30;;
15383;SDS011;7790;53.022;12.968;2024-01-10T13:48:35;6.47;;;4.17;;
15383;SDS011;7790;53.022;12.968;2024-01-10T13:52:36;4.93;;;4.23;;
15383;SDS011;7790;53.022;12.968;2024-01-10T13:56:36;5.43;;;4.17;;
15383;SDS011;7790;53.022;12.968;2024-01-10T14:00:39;4.73;;;3.87;;
15383;SDS011;7790;53.022;12.968;2024-01-10T14:04:41;5.90;;;4.07;;
15383;SDS011;7790;53.022;12.968;2024-01-10T14:08:42;5.50;;;4.00;;
15383;SDS011;7790;53.022;12.968;2024-01-10T14:12:43;4.53;;;3.73;;
15383;SDS011;7790;53.022;12.968;2024-01-10T14:16:45;4.23;;;3.57;;
15383;SDS011;7790;53.022;12.968;2024-01-10T14:20:46;3.87;;;3.50;;
15383;SDS011;7790;53.022;12.968;2024-01-10T14:24:47;4.93;;;3.70;;
15383;SDS011;7790;53.022;12.968;2024-01-10T14:28:48;4.37;;;3.77;;
15383;SDS011;7790;53.022;12.968;2024-01-10T14:32:49;3.77;;;3.47;;
15383;SDS011;7790;53.022;12.968;2024-01-10T14:36:49;4.70;;;3.50;;
15383;SDS011;7790;53.022;12.968;2024-01-10T14:40:50;4.00;;;3.70;;
15383;SDS011;7790;53.022;12.968;2024-01-10T14:44:52;3.80;;;3.50;;
15383;SDS011;7790;53.022;12.968;2024-01-10T14:48:53;3.93;;;3.40;;
15383;SDS011;7790;53.022;12.968;2024-01-10T14:52:54;4.20;;;3.70;;
15383;SDS011;7790;53.022;12.968;2024-01-10T14:56:57;4.10;;;3.50;;
15383;SDS011;7790;53.022;12.968;2024-01-10T15:00:58;4.87;;;3.80;;
15383;SDS011;7790;53.022;12.968;2024-01-10T15:04:59;3.83;;;3.53;;
15383;SDS011;7790;53.022;12.968;2024-01-10T15:09:00;4.60;;;3.60;;
15383;SDS011;7790;53.022;12.968;2024-01-10T15:13:00;3.77;;;3.30;;
15383;SDS011;7790;53.022;12.968;2024-01-10T15:17:03;3.80;;;3.40;;
15383;SDS011;7790;53.022;12.968;2024-01-10T15:21:06;3.90;;;3.57;;
15383;SDS011;7790;53.022;12.968;2024-01-10T15:25:06;3.73;;;3.43;;
15383;SDS011;7790;53.022;12.968;2024-01-10T15:29:08;4.00;;;3.60;;
15383;SDS011;7790;53.022;12.968;2024-01-10T15:33:08;4.10;;;3.70;;
15383;SDS011;7790;53.022;12.968;2024-01-10T15:37:11;4.67;;;3.57;;
15383;SDS011;7790;53.022;12.968;2024-01-10T15:41:11;4.23;;;3.53;;
15383;SDS011;7790;53.022;12.968;2024-01-10T15:45:12;4.20;;;3.30;;
15383;SDS011;7790;53.022;12.968;2024-01-10T15:49:14;3.93;;;3.50;;
15383;SDS011;7790;53.022;12.968;2024-01-10T15:53:15;3.90;;;3.23;;
15383;SDS011;7790;53.022;12.968;2024-01-10T15:57:17;7.10;;;3.90;;
15383;SDS011;7790;53.022;12.968;2024-01-10T16:01:18;3.90;;;3.50;;
15383;SDS011;7790;53.022;12.968;2024-01-10T16:05:19;4.50;;;3.77;;
15383;SDS011;7790;53.022;12.968;2024-01-10T16:09:20;3.60;;;3.30;;
15383;SDS011;7790;53.022;12.968;2024-01-10T16:13:21;6.23;;;3.50;;
15383;SDS011;7790;53.022;12.968;2024-01-10T16:17:22;4.80;;;3.23;;
15383;SDS011;7790;53.022;12.968;2024-01-10T16:21:23;4.00;;;3.20;;
15383;SDS011;7790;53.022;12.968;2024-01-10T16:25:24;3.43;;;3.13;;
15383;SDS011;7790;53.022;12.968;2024-01-10T16:29:25;3.50;;;3.20;;
15383;SDS011;7790;53.022;12.968;2024-01-10T16:33:26;3.43;;;3.13;;
15383;SDS011;7790;53.022;12.968;2024-01-10T16:37:27;3.40;;;3.10;;
15383;SDS011;7790;53.022;12.968;2024-01-10T16:41:28;2.90;;;2.60;;
15383;SDS011;7790;53.022;12.968;2024-01-10T16:45:29;3.53;;;3.23;;
15383;SDS011;7790;53.022;12.968;2024-01-10T16:49:34;3.53;;;3.23;;
15383;SDS011;7790;53.022;12.968;2024-01-10T16:53:35;3.47;;;3.17;;
15383;SDS011;7790;53.022;12.968;2024-01-10T16:57:36;3.20;;;2.90;;
15383;SDS011;7790;53.022;12.968;2024-01-10T17:01:37;3.60;;;3.30;;
15383;SDS011;7790;53.022;12.968;2024-01-10T17:05:38;3.87;;;3.50;;
15383;SDS011;7790;53.022;12.968;2024-01-10T17:09:40;3.50;;;2.73;;
15383;SDS011;7790;53.022;12.968;2024-01-10T17:13:42;4.13;;;3.30;;
15383;SDS011;7790;53.022;12.968;2024-01-10T17:17:44;4.13;;;2.70;;
15383;SDS011;7790;53.022;12.968;2024-01-10T17:21:45;4.07;;;3.00;;
15383;SDS011;7790;53.022;12.968;2024-01-10T17:25:46;3.33;;;3.00;;
15383;SDS011;7790;53.022;12.968;2024-01-10T17:29:47;3.90;;;2.80;;
15383;SDS011;7790;53.022;12.968;2024-01-10T17:33:48;3.13;;;2.40;;
15383;SDS011;7790;53.022;12.968;2024-01-10T17:37:49;6.47;;;5.97;;
15383;SDS011;7790;53.022;12.968;2024-01-10T17:41:51;11.80;;;10.93;;
15383;SDS011;7790;53.022;12.968;2024-01-10T17:45:53;9.27;;;8.57;;
15383;SDS011;7790;53.022;12.968;2024-01-10T17:49:54;9.03;;;8.37;;
15383;SDS011;7790;53.022;12.968;2024-01-10T17:53:54;10.00;;;9.30;;
15383;SDS011;7790;53.022;12.968;2024-01-10T17:57:56;8.50;;;8.00;;
15383;SDS011;7790;53.022;12.968;2024-01-10T18:01:57;8.13;;;7.57;;
15383;SDS011;7790;53.022;12.968;2024-01-10T18:05:59;7.70;;;7.20;;
15383;SDS011;7790;53.022;12.968;2024-01-10T18:10:00;7.50;;;6.90;;
15383;SDS011;7790;53.022;12.968;2024-01-10T18:14:00;6.60;;;6.07;;
15383;SDS011;7790;53.022;12.968;2024-01-10T18:18:01;7.27;;;6.20;;
15383;SDS011;7790;53.022;12.968;2024-01-10T18:22:02;7.27;;;5.93;;
15383;SDS011;7790;53.022;12.968;2024-01-10T18:26:03;5.70;;;5.30;;
15383;SDS011;7790;53.022;12.968;2024-01-10T18:30:04;5.07;;;4.73;;
15383;SDS011;7790;53.022;12.968;2024-01-10T18:34:06;5.33;;;4.80;;
15383;SDS011;7790;53.022;12.968;2024-01-10T18:38:09;5.37;;;4.97;;
15383;SDS011;7790;53.022;12.968;2024-01-10T18:42:10;4.73;;;4.33;;
15383;SDS011;7790;53.022;12.968;2024-01-10T18:46:12;4.07;;;3.80;;
15383;SDS011;7790;53.022;12.968;2024-01-10T18:50:13;4.20;;;3.90;;
15383;SDS011;7790;53.022;12.968;2024-01-10T18:54:14;4.00;;;3.60;;
15383;SDS011;7790;53.022;12.968;2024-01-10T18:58:15;4.23;;;3.80;;
15383;SDS011;7790;53.022;12.968;2024-01-10T19:02:15;3.70;;;3.50;;
15383;SDS011;7790;53.022;12.968;2024-01-10T19:06:16;3.53;;;3.30;;
15383;SDS011;7790;53.022;12.968;2024-01-10T19:10:17;3.53;;;3.33;;
15383;SDS011;7790;53.022;12.968;2024-01-10T19:14:18;4.37;;;3.10;;
15383;SDS011;7790;53.022;12.968;2024-01-10T19:18:19;3.17;;;2.97;;
15383;SDS011;7790;53.022;12.968;2024-01-10T19:22:20;3.13;;;2.60;;
15383;SDS011;7790;53.022;12.968;2024-01-10T19:26:22;3.10;;;2.90;;
15383;SDS011;7790;53.022;12.968;2024-01-10T19:30:23;3.00;;;2.80;;
15383;SDS011;7790;53.022;12.968;2024-01-10T19:34:24;2.97;;;2.77;;
15383;SDS011;7790;53.022;12.968;2024-01-10T19:38:25;2.80;;;2.60;;
15383;SDS011;7790;53.022;12.968;2024-01-10T19:42:26;2.67;;;2.47;;
15383;SDS011;7790;53.022;12.968;2024-01-10T19:46:28;2.80;;;2.53;;
15383;SDS011;7790;53.022;12.968;2024-01-10T19:50:29;2.97;;;2.67;;
15383;SDS011;7790;53.022;12.968;2024-01-10T19:54:30;3.30;;;2.37;;
15383;SDS011;7790;53.022;12.968;2024-01-10T19:58:31;2.60;;;2.40;;
15383;SDS011;7790;53.022;12.968;2024-01-10T20:02:31;3.13;;;2.30;;
15383;SDS011;7790;53.022;12.968;2024-01-10T20:06:33;2.83;;;2.20;;
15383;SDS011;7790;53.022;12.968;2024-01-10T20:10:33;3.60;;;2.37;;
15383;SDS011;7790;53.022;12.968;2024-01-10T20:14:36;3.73;;;2.47;;
15383;SDS011;7790;53.022;12.968;2024-01-10T20:18:37;2.57;;;2.37;;
15383;SDS011;7790;53.022;12.968;2024-01-10T20:22:38;2.50;;;2.30;;
15383;SDS011;7790;53.022;12.968;2024-01-10T20:26:39;3.43;;;2.37;;
15383;SDS011;7790;53.022;12.968;2024-01-10T20:30:39;2.63;;;2.20;;
15383;SDS011;7790;53.022;12.968;2024-01-10T20:34:40;2.50;;;2.30;;
15383;SDS011;7790;53.022;12.968;2024-01-10T20:38:41;2.40;;;2.20;;
15383;SDS011;7790;53.022;12.968;2024-01-10T20:42:43;2.10;;;2.00;;
15383;SDS011;7790;53.022;12.968;2024-01-10T20:46:44;3.17;;;2.20;;
15383;SDS011;7790;53.022;12.968;2024-01-10T20:50:45;1.97;;;1.80;;
15383;SDS011;7790;53.022;12.968;2024-01-10T20:54:46;2.70;;;2.20;;
15383;SDS011;7790;53.022;12.968;2024-01-10T20:58:47;2.17;;;1.80;;
15383;SDS011;7790;53.022;12.968;2024-01-10T21:02:48;1.80;;;1.70;;
15383;SDS011;7790;53.022;12.968;2024-01-10T21:06:50;2.60;;;1.70;;
15383;SDS011;7790;53.022;12.968;2024-01-10T21:10:56;2.97;;;1.73;;
15383;SDS011;7790;53.022;12.968;2024-01-10T21:14:57;2.73;;;1.83;;
15383;SDS011;7790;53.022;12.968;2024-01-10T21:18:58;3.13;;;1.70;;
15383;SDS011;7790;53.022;12.968;2024-01-10T21:22:59;1.87;;;1.63;;
15383;SDS011;7790;53.022;12.968;2024-01-10T21:27:00;3.33;;;1.60;;
15383;SDS011;7790;53.022;12.968;2024-01-10T21:31:01;1.50;;;1.40;;
15383;SDS011;7790;53.022;12.968;2024-01-10T21:35:02;2.53;;;1.23;;
15383;SDS011;7790;53.022;12.968;2024-01-10T21:39:03;1.60;;;1.50;;
15383;SDS011;7790;53.022;12.968;2024-01-10T21:43:04;2.97;;;1.40;;
15383;SDS011;7790;53.022;12.968;2024-01-10T21:47:05;3.33;;;1.30;;
15383;SDS011;7790;53.022;12.968;2024-01-10T21:51:06;1.77;;;1.57;;
15383;SDS011;7790;53.022;12.968;2024-01-10T21:55:07;1.57;;;1.47;;
15383;SDS011;7790;53.022;12.968;2024-01-10T21:59:08;1.47;;;1.37;;
15383;SDS011;7790;53.022;12.968;2024-01-10T22:03:09;1.53;;;1.43;;
15383;SDS011;7790;53.022;12.968;2024-01-10T22:07:10;2.40;;;1.50;;
15383;SDS011;7790;53.022;12.968;2024-01-10T22:11:12;1.53;;;1.43;;
15383;SDS011;7790;53.022;12.968;2024-01-10T22:15:13;1.47;;;1.37;;
15383;SDS011;7790;53.022;12.968;2024-01-10T22:19:14;1.60;;;1.50;;
15383;SDS011;7790;53.022;12.968;2024-01-10T22:23:15;1.97;;;1.73;;
15383;SDS011;7790;53.022;12.968;2024-01-10T22:27:16;4.23;;;2.00;;
15383;SDS011;7790;53.022;12.968;2024-01-10T22:31:16;2.00;;;1.60;;
15383;SDS011;7790;53.022;12.968;2024-01-10T22:35:17;2.50;;;1.63;;
15383;SDS011;7790;53.022;12.968;2024-01-10T22:39:18;2.00;;;1.90;;
15383;SDS011;7790;53.022;12.968;2024-01-10T22:43:19;1.60;;;1.50;;
15383;SDS011;7790;53.022;12.968;2024-01-10T22:47:20;1.77;;;1.60;;
15383;SDS011;7790;53.022;12.968;2024-01-10T22:51:21;1.60;;;1.50;;
15383;SDS011;7790;53.022;12.968;2024-01-10T22:55:21;2.53;;;1.67;;
15383;SDS011;7790;53.022;12.968;2024-01-10T22:59:22;1.90;;;1.80;;
15383;SDS011;7790;53.022;12.968;2024-01-10T23:03:23;2.10;;;1.70;;
15383;SDS011;7790;53.022;12.968;2024-01-10T23:07:24;1.73;;;1.63;;
15383;SDS011;7790;53.022;12.968;2024-01-10T23:11:25;1.60;;;1.50;;
15383;SDS011;7790;53.022;12.968;2024-01-10T23:15:26;2.77;;;1.73;;
15383;SDS011;7790;53.022;12.968;2024-01-10T23:19:26;1.87;;;1.50;;
15383;SDS011;7790;53.022;12.968;2024-01-10T23:23:27;1.90;;;1.70;;
15383;SDS011;7790;53.022;12.968;2024-01-10T23:27:28;2.13;;;1.90;;
15383;SDS011;7790;53.022;12.968;2024-01-10T23:31:29;2.97;;;1.80;;
15383;SDS011;7790;53.022;12.968;2024-01-10T23:35:30;1.97;;;1.87;;
15383;SDS011;7790;53.022;12.968;2024-01-10T23:39:30;1.70;;;1.60;;
15383;SDS011;7790;53.022;12.968;2024-01-10T23:43:32;1.53;;;1.43;;
15383;SDS011;7790;53.022;12.968;2024-01-10T23:47:33;1.57;;;1.47;;
15383;SDS011;7790;53.022;12.968;2024-01-10T23:51:34;1.70;;;1.60;;
15383;SDS011;7790;53.022;12.968;2024-01-10T23:55:35;2.30;;;1.50;;
15383;SDS011;7790;53.022;12.968;2024-01-10T23:59:37;2.00;;;1.80;;
